Gaysville, Vermont
Current Conditions -  °F | °C
As of 4:35 AM on Thursday 18 Dec 2014 (Local Time) from KRUT Reporting Station
Overcast Overcast  
Wind Chill: 26°   Ceiling: 2600
Heat Index: 34°   Visibility: 10mi
Dew Point: 28°   Wind: 10mph
Humidity: 81%   Direction: 290°WNW
Pressure: 29.74"   Gusts: 16mph
Location:  43.78°N, 72.7°W
Report Text: KRUT 180935Z 29009G14KT 10SM BKN026 BKN032 OVC038 01/M02 A2974 RMK AO1
Loading
Personal Weather Stations






























Interactive Weather Map New forecast layout! Learn more

10-Day Weather Forecast

Advertisements
Track Severe Weather on mobile